createdAt,value
2022-08-11T00:00:53.296Z,9.719662
2022-08-11T00:01:53.281Z,9.719666
2022-08-11T00:02:53.291Z,9.719636
2022-08-11T00:03:53.262Z,9.719646
2022-08-11T00:04:53.268Z,9.719616
2022-08-11T00:05:53.267Z,9.719740
2022-08-11T00:06:53.237Z,9.719640
2022-08-11T00:07:53.223Z,9.719661
2022-08-11T00:08:53.266Z,9.719588
2022-08-11T00:09:53.247Z,9.719687
2022-08-11T00:10:53.199Z,9.719613
2022-08-11T00:11:53.190Z,9.719615
2022-08-11T00:12:54.178Z,9.719656
2022-08-11T00:13:53.169Z,9.719628
2022-08-11T00:14:53.176Z,9.719754
2022-08-11T00:15:53.148Z,9.719716
2022-08-11T00:16:53.137Z,9.719668
2022-08-11T00:17:53.130Z,9.719597
2022-08-11T00:18:53.123Z,9.719617
2022-08-11T00:20:12.402Z,9.719723
2022-08-11T00:20:54.104Z,9.719721
2022-08-11T00:22:04.912Z,9.719743
2022-08-11T00:22:54.086Z,9.719697
2022-08-11T00:23:53.073Z,9.719621
2022-08-11T00:24:57.225Z,9.719564
2022-08-11T00:25:54.051Z,9.719625
2022-08-11T00:26:53.043Z,9.719808
2022-08-11T00:27:53.031Z,9.719616
2022-08-11T00:28:53.020Z,9.719667
2022-08-11T00:29:53.028Z,9.719684
2022-08-11T00:30:53.010Z,9.719798
2022-08-11T00:31:52.991Z,9.719834
2022-08-11T00:32:52.991Z,9.719705
2022-08-11T00:33:52.973Z,9.719645
2022-08-11T00:34:52.984Z,9.719634
2022-08-11T00:35:57.669Z,9.719551
2022-08-11T00:36:52.949Z,9.719598
2022-08-11T00:37:52.935Z,9.719579
2022-08-11T00:38:52.947Z,9.719626
2022-08-11T00:39:53.034Z,9.719644
2022-08-11T00:40:52.927Z,9.719704
2022-08-11T00:41:56.776Z,9.719522
2022-08-11T00:42:52.887Z,9.719557
2022-08-11T00:43:52.879Z,9.719584
2022-08-11T00:44:52.867Z,9.719553
2022-08-11T00:45:52.901Z,9.719508
2022-08-11T00:46:52.857Z,9.719600
2022-08-11T00:47:52.842Z,9.719687
2022-08-11T00:48:52.835Z,9.719672
2022-08-11T00:49:52.822Z,9.719640
2022-08-11T00:50:52.831Z,9.719643
2022-08-11T00:52:02.029Z,9.719686
2022-08-11T00:52:53.797Z,9.719678
2022-08-11T00:53:52.785Z,9.719663
2022-08-11T00:54:52.775Z,9.719665
2022-08-11T00:55:55.469Z,9.719625
2022-08-11T00:56:52.761Z,9.719690
2022-08-11T00:57:52.745Z,9.719630
2022-08-11T00:58:52.741Z,9.719666
2022-08-11T00:59:52.725Z,9.719662
2022-08-11T01:00:52.759Z,9.719835
2022-08-11T01:01:52.702Z,9.719788
2022-08-11T01:02:52.701Z,9.719695
2022-08-11T01:03:52.688Z,9.719697
2022-08-11T01:04:55.745Z,9.719644
2022-08-11T01:05:52.681Z,9.719592
2022-08-11T01:06:52.662Z,9.719627
2022-08-11T01:08:02.388Z,9.719708
2022-08-11T01:08:53.689Z,9.719638
2022-08-11T01:09:52.628Z,9.719584
2022-08-11T01:10:52.688Z,9.719649
2022-08-11T01:11:55.727Z,9.719633
2022-08-11T01:12:52.603Z,9.719635
2022-08-11T01:13:52.594Z,9.719676
2022-08-11T01:14:52.588Z,9.719655
2022-08-11T01:15:57.019Z,9.719659
2022-08-11T01:16:52.632Z,9.719720
2022-08-11T01:17:52.555Z,9.719688
2022-08-11T01:18:52.544Z,9.719872
2022-08-11T01:20:44.724Z,9.719888
2022-08-11T01:20:53.546Z,9.719806
2022-08-11T01:21:52.522Z,9.719755
2022-08-11T01:22:52.566Z,9.719770
2022-08-11T01:23:52.503Z,9.719558
2022-08-11T01:24:52.485Z,9.719464
2022-08-11T01:25:57.061Z,9.719560
2022-08-11T01:26:53.470Z,9.719654
2022-08-11T01:27:52.463Z,9.719624
2022-08-11T01:28:52.539Z,9.719654
2022-08-11T01:29:52.436Z,9.719654
2022-08-11T01:30:54.293Z,9.719621
2022-08-11T01:31:52.425Z,9.719651
2022-08-11T01:32:52.410Z,9.719618
2022-08-11T01:33:52.404Z,9.719609
2022-08-11T01:34:52.387Z,9.719661
2022-08-11T01:35:52.597Z,9.719647
2022-08-11T01:36:53.585Z,9.719667
2022-08-11T01:37:52.358Z,9.719736
2022-08-11T01:38:52.346Z,9.719728
2022-08-11T01:39:52.424Z,9.719684
2022-08-11T01:40:52.346Z,9.719584
2022-08-11T01:41:52.324Z,9.719557
2022-08-11T01:42:52.312Z,9.719592
2022-08-11T01:43:52.297Z,9.719616
2022-08-11T01:44:52.294Z,9.719634
2022-08-11T01:45:52.379Z,9.719624
2022-08-11T01:46:52.444Z,9.719644
2022-08-11T01:47:53.521Z,9.719652
2022-08-11T01:48:52.252Z,9.719628
2022-08-11T01:50:09.438Z,9.719625
2022-08-11T01:50:53.248Z,9.719573
2022-08-11T01:51:52.225Z,9.719640
2022-08-11T01:52:52.386Z,9.719637
2022-08-11T01:53:52.199Z,9.719625
2022-08-11T01:54:52.191Z,9.719657
2022-08-11T01:55:52.238Z,9.719639
2022-08-11T01:56:52.167Z,9.719606
2022-08-11T01:57:52.165Z,9.719606
2022-08-11T01:58:52.156Z,9.719623
2022-08-11T01:59:52.147Z,9.719563
2022-08-11T02:00:52.192Z,9.719602
2022-08-11T02:01:52.223Z,9.719643
2022-08-11T02:02:52.113Z,9.719666
2022-08-11T02:03:52.107Z,9.719660
2022-08-11T02:04:52.094Z,9.719675
2022-08-11T02:05:52.083Z,9.719660
2022-08-11T02:06:52.090Z,9.719656
2022-08-11T02:07:52.069Z,9.719636
2022-08-11T02:08:52.054Z,9.719612
2022-08-11T02:09:52.045Z,9.719675
2022-08-11T02:10:52.035Z,9.719663
2022-08-11T02:11:52.042Z,9.719642
2022-08-11T02:12:52.412Z,9.719684
2022-08-11T02:13:52.007Z,9.719712
2022-08-11T02:15:04.779Z,9.719655
2022-08-11T02:15:52.993Z,9.719667
2022-08-11T02:16:51.999Z,9.719605
2022-08-11T02:17:54.703Z,9.719653
2022-08-11T02:18:51.963Z,9.719793
2022-08-11T02:19:51.958Z,9.719760
2022-08-11T02:20:51.951Z,9.719777
2022-08-11T02:21:51.946Z,9.719703
2022-08-11T02:22:51.944Z,9.719707
2022-08-11T02:24:07.106Z,9.719669
2022-08-11T02:24:52.900Z,9.719687
2022-08-11T02:25:51.980Z,9.719712
2022-08-11T02:26:51.901Z,9.719687
2022-08-11T02:27:51.878Z,9.719656
2022-08-11T02:28:51.862Z,9.719608
2022-08-11T02:29:51.862Z,9.719676
2022-08-11T02:30:51.862Z,9.719618
2022-08-11T02:32:24.373Z,9.719592
2022-08-11T02:32:53.030Z,9.719729
2022-08-11T02:33:51.821Z,9.719720
2022-08-11T02:34:59.411Z,9.719685
2022-08-11T02:35:51.806Z,9.719721
2022-08-11T02:36:52.045Z,9.719609
2022-08-11T02:37:51.823Z,9.719592
2022-08-11T02:38:52.007Z,9.719838
2022-08-11T02:39:51.814Z,9.719815
2022-08-11T02:40:51.756Z,9.719638
2022-08-11T02:41:51.762Z,9.719536
2022-08-11T02:42:51.731Z,9.719514
2022-08-11T02:43:51.856Z,9.719411
2022-08-11T02:44:51.711Z,9.719564
2022-08-11T02:45:51.723Z,9.719644
2022-08-11T02:46:51.704Z,9.719687
2022-08-11T02:47:51.687Z,9.719715
2022-08-11T02:48:51.679Z,9.719634
2022-08-11T02:50:02.721Z,9.719602
2022-08-11T02:50:52.653Z,9.719701
2022-08-11T02:51:51.702Z,9.719721
2022-08-11T02:52:51.637Z,9.719702
2022-08-11T02:53:57.995Z,9.719609
2022-08-11T02:54:52.618Z,9.719617
2022-08-11T02:55:57.983Z,9.719674
2022-08-11T02:56:52.636Z,9.719686
2022-08-11T02:57:51.594Z,9.719646
2022-08-11T02:58:51.582Z,9.719607
2022-08-11T02:59:51.593Z,9.719661
2022-08-11T03:00:51.590Z,9.719645
2022-08-11T03:01:51.623Z,9.719600
2022-08-11T03:02:51.578Z,9.719574
2022-08-11T03:03:51.545Z,9.719554
2022-08-11T03:04:51.533Z,9.719532
2022-08-11T03:05:52.908Z,9.719547
2022-08-11T03:06:51.522Z,9.719524
2022-08-11T03:07:51.509Z,9.719521
2022-08-11T03:08:51.500Z,9.719512
2022-08-11T03:09:51.485Z,9.719527
2022-08-11T03:10:51.465Z,9.719543
2022-08-11T03:11:51.479Z,9.719530
2022-08-11T03:12:53.666Z,9.719440
2022-08-11T03:13:51.451Z,9.719440
2022-08-11T03:14:51.426Z,9.719416
2022-08-11T03:15:51.435Z,9.719568
2022-08-11T03:16:51.475Z,9.719397
2022-08-11T03:17:51.400Z,9.719452
2022-08-11T03:18:51.399Z,9.719310
2022-08-11T03:19:51.582Z,9.719419
2022-08-11T03:20:51.372Z,9.719578
2022-08-11T03:22:03.060Z,9.719528
2022-08-11T03:22:52.353Z,9.719571
2022-08-11T03:23:51.347Z,9.719570
2022-08-11T03:24:51.337Z,9.719604
2022-08-11T03:25:51.324Z,9.719583
2022-08-11T03:26:51.325Z,9.719577
2022-08-11T03:27:51.303Z,9.719511
2022-08-11T03:28:51.292Z,9.719557
2022-08-11T03:29:51.284Z,9.719590
2022-08-11T03:30:51.282Z,9.719595
2022-08-11T03:31:51.285Z,9.719523
2022-08-11T03:32:51.252Z,9.719567
2022-08-11T03:33:51.247Z,9.719609
2022-08-11T03:34:51.233Z,9.719619
2022-08-11T03:35:51.227Z,9.719597
2022-08-11T03:37:15.067Z,9.719634
2022-08-11T03:37:52.482Z,9.719637
2022-08-11T03:38:51.271Z,9.719625
2022-08-11T03:39:56.160Z,9.719636
2022-08-11T03:40:52.178Z,9.719599
2022-08-11T03:42:04.489Z,9.719586
2022-08-11T03:42:52.157Z,9.719657
2022-08-11T03:43:58.415Z,9.719740
2022-08-11T03:44:51.354Z,9.719673
2022-08-11T03:45:51.134Z,9.719597
2022-08-11T03:46:51.139Z,9.719557
2022-08-11T03:47:54.958Z,9.719528
2022-08-11T03:48:51.115Z,9.719566
2022-08-11T03:49:51.095Z,9.719659
2022-08-11T03:50:54.958Z,9.719608
2022-08-11T03:51:52.187Z,9.719636
2022-08-11T03:52:51.247Z,9.719616
2022-08-11T03:53:51.052Z,9.719633
2022-08-11T03:54:51.046Z,9.719619
2022-08-11T03:55:51.039Z,9.719675
2022-08-11T03:56:51.034Z,9.719674
2022-08-11T03:57:51.017Z,9.719674
2022-08-11T03:58:51.113Z,9.719690
2022-08-11T03:59:50.996Z,9.719644
2022-08-11T04:00:50.987Z,9.719613
2022-08-11T04:01:51.039Z,9.719634
2022-08-11T04:02:50.969Z,9.719656
2022-08-11T04:03:50.961Z,9.719637
2022-08-11T04:04:51.641Z,9.719611
2022-08-11T04:05:51.021Z,9.719588
2022-08-11T04:06:50.940Z,9.719576
2022-08-11T04:07:50.920Z,9.719625
2022-08-11T04:08:50.910Z,9.719636
2022-08-11T04:09:50.899Z,9.719636
2022-08-11T04:10:50.890Z,9.719664
2022-08-11T04:11:50.896Z,9.719618
2022-08-11T04:12:51.018Z,9.719682
2022-08-11T04:13:50.867Z,9.719629
2022-08-11T04:14:50.850Z,9.719624
2022-08-11T04:15:51.059Z,9.719609
2022-08-11T04:16:50.836Z,9.719605
2022-08-11T04:17:50.837Z,9.719612
2022-08-11T04:18:50.816Z,9.719674
2022-08-11T04:19:50.803Z,9.719625
2022-08-11T04:20:50.792Z,9.719663
2022-08-11T04:21:50.781Z,9.719646
2022-08-11T04:22:50.781Z,9.719658
2022-08-11T04:24:35.010Z,9.719661
2022-08-11T04:24:51.776Z,9.719722
2022-08-11T04:25:55.854Z,9.719696
2022-08-11T04:26:51.729Z,9.719660
2022-08-11T04:27:50.861Z,9.719727
2022-08-11T04:28:50.897Z,9.719623
2022-08-11T04:30:02.101Z,9.719613
2022-08-11T04:30:51.896Z,9.719687
2022-08-11T04:31:52.738Z,9.719669
2022-08-11T04:32:50.680Z,9.719704
2022-08-11T04:33:52.064Z,9.719679
2022-08-11T04:34:50.658Z,9.719691
2022-08-11T04:35:51.418Z,9.719701
2022-08-11T04:36:50.635Z,9.719704
2022-08-11T04:37:51.351Z,9.719663
2022-08-11T04:38:50.623Z,9.719648
2022-08-11T04:39:50.705Z,9.719599
2022-08-11T04:40:50.600Z,9.719614
2022-08-11T04:41:50.594Z,9.719656
2022-08-11T04:42:50.596Z,9.719564
2022-08-11T04:44:02.887Z,9.719556
2022-08-11T04:44:51.570Z,9.719612
2022-08-11T04:45:50.551Z,9.719660
2022-08-11T04:46:50.537Z,9.719696
2022-08-11T04:48:03.536Z,9.719616
2022-08-11T04:48:51.523Z,9.719582
2022-08-11T04:49:50.530Z,9.719619
2022-08-11T04:51:08.591Z,9.719603
2022-08-11T04:51:51.552Z,9.719600
2022-08-11T04:52:50.571Z,9.719580
2022-08-11T04:53:52.265Z,9.719642
2022-08-11T04:54:50.809Z,9.719687
2022-08-11T04:55:50.465Z,9.719687
2022-08-11T04:56:50.597Z,9.719680
2022-08-11T04:57:50.450Z,9.719713
2022-08-11T04:58:50.423Z,9.719630
2022-08-11T04:59:50.423Z,9.719677
2022-08-11T05:00:50.425Z,9.719651
2022-08-11T05:01:50.464Z,9.719674
2022-08-11T05:02:50.430Z,9.719675
2022-08-11T05:03:50.399Z,9.719668
2022-08-11T05:04:50.368Z,9.719629
2022-08-11T05:05:56.496Z,9.719790
2022-08-11T05:06:51.353Z,9.719645
2022-08-11T05:07:50.374Z,9.719697
2022-08-11T05:08:50.333Z,9.719628
2022-08-11T05:09:50.328Z,9.719693
2022-08-11T05:10:50.311Z,9.719760
2022-08-11T05:11:50.321Z,9.719755
2022-08-11T05:12:50.309Z,9.719685
2022-08-11T05:13:50.287Z,9.719637
2022-08-11T05:14:50.274Z,9.719628
2022-08-11T05:15:51.597Z,9.719652
2022-08-11T05:16:50.265Z,9.719610
2022-08-11T05:17:50.251Z,9.719604
2022-08-11T05:18:50.238Z,9.719572
2022-08-11T05:19:50.228Z,9.719596
2022-08-11T05:20:50.218Z,9.719607
2022-08-11T05:21:50.226Z,9.719572
2022-08-11T05:22:50.197Z,9.719645
2022-08-11T05:23:50.196Z,9.719709
2022-08-11T05:24:50.179Z,9.719553
2022-08-11T05:26:43.342Z,9.719563
2022-08-11T05:26:51.176Z,9.719636
2022-08-11T05:27:50.152Z,9.719698
2022-08-11T05:28:50.137Z,9.719572
2022-08-11T05:29:50.132Z,9.719531
2022-08-11T05:30:50.116Z,9.719581
2022-08-11T05:31:50.132Z,9.719690
2022-08-11T05:32:50.093Z,9.719674
2022-08-11T05:33:50.090Z,9.719588
2022-08-11T05:34:50.081Z,9.719560
2022-08-11T05:36:00.825Z,9.719640
2022-08-11T05:36:51.083Z,9.719635
2022-08-11T05:37:50.046Z,9.719708
2022-08-11T05:38:50.047Z,9.719677
2022-08-11T05:39:50.100Z,9.719687
2022-08-11T05:40:51.126Z,9.719678
2022-08-11T05:41:50.034Z,9.719584
2022-08-11T05:42:50.005Z,9.719546
2022-08-11T05:44:20.605Z,9.719639
2022-08-11T05:44:50.993Z,9.719524
2022-08-11T05:46:02.772Z,9.719708
2022-08-11T05:46:50.980Z,9.719709
2022-08-11T05:47:49.958Z,9.719710
2022-08-11T05:48:49.974Z,9.719534
2022-08-11T05:49:49.939Z,9.719521
2022-08-11T05:50:49.928Z,9.719482
2022-08-11T05:51:55.111Z,9.719680
2022-08-11T05:52:55.453Z,9.719752
2022-08-11T05:53:50.058Z,9.719628
2022-08-11T05:54:49.889Z,9.719687
2022-08-11T05:56:01.649Z,9.719626
2022-08-11T05:56:50.887Z,9.719729
2022-08-11T05:57:51.900Z,9.719743
2022-08-11T05:58:49.845Z,9.719543
2022-08-11T05:59:49.843Z,9.719791
2022-08-11T06:00:49.843Z,9.719787
2022-08-11T06:01:49.882Z,9.719613
2022-08-11T06:02:49.824Z,9.719765
2022-08-11T06:03:58.665Z,9.719832
2022-08-11T06:04:50.812Z,9.720025
2022-08-11T06:05:50.823Z,9.720002
2022-08-11T06:06:49.770Z,9.719656
2022-08-11T06:07:50.305Z,9.719688
2022-08-11T06:08:49.758Z,9.719672
2022-08-11T06:09:49.743Z,9.719660
2022-08-11T06:10:49.739Z,9.719658
2022-08-11T06:11:49.727Z,9.719642
2022-08-11T06:12:49.732Z,9.719630
2022-08-11T06:13:49.715Z,9.719583
2022-08-11T06:14:49.710Z,9.719627
2022-08-11T06:15:49.693Z,9.719631
2022-08-11T06:16:49.879Z,9.719654
2022-08-11T06:17:49.682Z,9.719703
2022-08-11T06:18:49.670Z,9.719607
2022-08-11T06:19:49.657Z,9.719584
2022-08-11T06:20:49.658Z,9.719580
2022-08-11T06:21:49.636Z,9.719558
2022-08-11T06:22:52.933Z,9.719628
2022-08-11T06:23:49.608Z,9.719661
2022-08-11T06:24:49.610Z,9.719630
2022-08-11T06:25:49.599Z,9.719567
2022-08-11T06:27:11.331Z,9.719553
2022-08-11T06:27:50.588Z,9.719573
2022-08-11T06:28:49.656Z,9.719510
2022-08-11T06:29:55.134Z,9.719570
2022-08-11T06:30:50.550Z,9.719619
2022-08-11T06:31:49.534Z,9.719681
2022-08-11T06:32:49.534Z,9.719658
2022-08-11T06:33:49.511Z,9.719563
2022-08-11T06:34:49.508Z,9.719730
2022-08-11T06:35:49.499Z,9.719480
2022-08-11T06:36:49.486Z,9.719626
2022-08-11T06:37:49.506Z,9.719646
2022-08-11T06:38:49.472Z,9.719826
2022-08-11T06:39:49.505Z,9.719722
2022-08-11T06:40:49.445Z,9.719681
2022-08-11T06:41:49.436Z,9.719664
2022-08-11T06:42:49.436Z,9.719637
2022-08-11T06:43:55.941Z,9.719612
2022-08-11T06:44:50.403Z,9.719633
2022-08-11T06:45:49.392Z,9.719627
2022-08-11T06:46:49.386Z,9.719634
2022-08-11T06:47:49.404Z,9.719634
2022-08-11T06:48:49.380Z,9.719625
2022-08-11T06:49:49.361Z,9.719620
2022-08-11T06:50:49.348Z,9.719607
2022-08-11T06:51:49.335Z,9.719624
2022-08-11T06:52:49.626Z,9.719598
2022-08-11T06:53:49.496Z,9.719595
2022-08-11T06:54:50.307Z,9.719638
2022-08-11T06:55:57.917Z,9.719660
2022-08-11T06:57:01.723Z,9.719625
2022-08-11T06:57:50.278Z,9.719637
2022-08-11T06:58:49.288Z,9.719637
2022-08-11T06:59:49.253Z,9.719573
2022-08-11T07:00:49.250Z,9.719565
2022-08-11T07:01:49.583Z,9.719583
2022-08-11T07:02:49.233Z,9.719569
2022-08-11T07:03:49.237Z,9.719566
2022-08-11T07:04:49.209Z,9.719586
2022-08-11T07:05:49.202Z,9.719608
2022-08-11T07:06:50.386Z,9.719624
2022-08-11T07:07:49.181Z,9.719588
2022-08-11T07:08:49.192Z,9.719555
2022-08-11T07:09:49.160Z,9.719602
2022-08-11T07:10:49.154Z,9.719597
2022-08-11T07:11:49.143Z,9.719569
2022-08-11T07:12:49.132Z,9.719583
2022-08-11T07:13:49.136Z,9.719555
2022-08-11T07:14:49.113Z,9.719565
2022-08-11T07:16:12.205Z,9.719609
2022-08-11T07:16:50.094Z,9.719596
2022-08-11T07:17:49.076Z,9.719596
2022-08-11T07:18:49.085Z,9.719571
2022-08-11T07:19:49.061Z,9.719645
2022-08-11T07:20:49.052Z,9.719584
2022-08-11T07:22:02.346Z,9.719559
2022-08-11T07:22:50.040Z,9.719567
2022-08-11T07:23:49.040Z,9.719605
2022-08-11T07:25:01.388Z,9.719665
2022-08-11T07:25:50.010Z,9.719707
2022-08-11T07:26:49.001Z,9.719708
2022-08-11T07:27:48.989Z,9.719595
2022-08-11T07:28:48.990Z,9.719598
2022-08-11T07:29:48.969Z,9.719573
2022-08-11T07:30:51.859Z,9.719548
2022-08-11T07:31:50.011Z,9.719562
2022-08-11T07:32:48.939Z,9.719580
2022-08-11T07:34:08.408Z,9.719614
2022-08-11T07:34:49.927Z,9.719598
2022-08-11T07:35:48.946Z,9.719545
2022-08-11T07:36:48.897Z,9.719558
2022-08-11T07:37:48.881Z,9.719540
2022-08-11T07:38:49.058Z,9.719552
2022-08-11T07:39:48.925Z,9.719544
2022-08-11T07:40:48.864Z,9.719542
2022-08-11T07:41:48.841Z,9.719570
2022-08-11T07:42:48.841Z,9.719558
2022-08-11T07:43:48.820Z,9.719571
2022-08-11T07:44:48.830Z,9.719581
2022-08-11T07:45:48.805Z,9.719569
2022-08-11T07:46:48.792Z,9.719572
2022-08-11T07:47:48.778Z,9.719584
2022-08-11T07:48:48.787Z,9.719608
2022-08-11T07:49:48.779Z,9.719585
2022-08-11T07:50:51.811Z,9.719594
2022-08-11T07:51:48.747Z,9.719588
2022-08-11T07:52:52.799Z,9.719588
2022-08-11T07:53:58.781Z,9.719588
2022-08-11T07:54:51.296Z,9.719596
2022-08-11T07:55:50.839Z,9.719568
2022-08-11T07:57:07.518Z,9.719604
2022-08-11T07:58:16.164Z,9.719563
2022-08-11T07:58:53.225Z,9.719551
2022-08-11T07:59:57.578Z,9.719560
2022-08-11T08:00:51.788Z,9.719556
2022-08-11T08:01:48.673Z,9.719547
2022-08-11T08:02:48.643Z,9.719572
2022-08-11T08:03:54.504Z,9.719602
2022-08-11T08:04:49.640Z,9.719589
2022-08-11T08:05:48.619Z,9.719569
2022-08-11T08:06:48.604Z,9.719577
2022-08-11T08:07:48.593Z,9.719559
2022-08-11T08:08:48.591Z,9.719540
2022-08-11T08:09:48.586Z,9.719544
2022-08-11T08:10:48.566Z,9.719567
2022-08-11T08:11:48.561Z,9.719562
2022-08-11T08:12:48.551Z,9.719557
2022-08-11T08:13:48.539Z,9.719536
2022-08-11T08:14:48.564Z,9.719564
2022-08-11T08:15:48.518Z,9.719526
2022-08-11T08:16:48.516Z,9.719510
2022-08-11T08:18:09.915Z,9.719530
2022-08-11T08:18:49.499Z,9.719550
2022-08-11T08:19:48.502Z,9.719460
2022-08-11T08:20:48.476Z,9.719554
2022-08-11T08:21:48.464Z,9.719533
2022-08-11T08:22:48.834Z,9.719563
2022-08-11T08:23:53.796Z,9.719562
2022-08-11T08:24:49.455Z,9.719538
2022-08-11T08:25:48.432Z,9.719512
2022-08-11T08:26:51.871Z,9.719631
2022-08-11T08:27:48.415Z,9.719726
2022-08-11T08:28:48.406Z,9.719808
2022-08-11T08:29:48.407Z,9.719480
2022-08-11T08:30:48.384Z,9.719470
2022-08-11T08:31:48.365Z,9.719496
2022-08-11T08:32:48.371Z,9.719491
2022-08-11T08:33:48.357Z,9.719509
2022-08-11T08:34:48.370Z,9.719436
2022-08-11T08:35:54.084Z,9.719405
2022-08-11T08:36:49.345Z,9.719449
2022-08-11T08:37:48.328Z,9.719503
2022-08-11T08:38:48.370Z,9.719563
2022-08-11T08:39:48.367Z,9.719623
2022-08-11T08:40:48.441Z,9.719633
2022-08-11T08:41:48.287Z,9.719606
2022-08-11T08:42:48.518Z,9.719721
2022-08-11T08:43:49.300Z,9.719655
2022-08-11T08:44:48.251Z,9.719664
2022-08-11T08:45:48.477Z,9.719663
2022-08-11T08:46:48.241Z,9.719642
2022-08-11T08:47:52.551Z,9.719596
2022-08-11T08:48:48.225Z,9.719580
2022-08-11T08:49:48.211Z,9.719545
2022-08-11T08:50:48.222Z,9.719472
2022-08-11T08:52:01.493Z,9.719553
2022-08-11T08:52:49.582Z,9.719605
2022-08-11T08:53:52.375Z,9.719640
2022-08-11T08:54:49.213Z,9.719623
2022-08-11T08:55:48.166Z,9.719648
2022-08-11T08:56:48.153Z,9.719629
2022-08-11T08:57:48.149Z,9.719674
2022-08-11T08:58:48.136Z,9.719624
2022-08-11T08:59:49.515Z,9.719593
2022-08-11T09:00:48.135Z,9.719648
2022-08-11T09:01:48.175Z,9.719687
2022-08-11T09:02:48.326Z,9.719588
2022-08-11T09:04:06.844Z,9.719576
2022-08-11T09:04:49.109Z,9.719597
2022-08-11T09:05:48.086Z,9.719660
2022-08-11T09:06:51.621Z,9.719622
2022-08-11T09:07:48.062Z,9.719603
2022-08-11T09:08:49.650Z,9.719639
2022-08-11T09:09:48.040Z,9.719625
2022-08-11T09:10:48.053Z,9.719657
2022-08-11T09:11:48.025Z,9.719680
2022-08-11T09:12:48.291Z,9.719593
2022-08-11T09:14:05.892Z,9.719610
2022-08-11T09:14:49.115Z,9.719596
2022-08-11T09:15:48.006Z,9.719625
2022-08-11T09:16:47.991Z,9.719585
2022-08-11T09:17:47.974Z,9.719538
2022-08-11T09:18:47.974Z,9.719588
2022-08-11T09:19:56.560Z,9.719585
2022-08-11T09:20:48.971Z,9.719604
2022-08-11T09:21:49.429Z,9.719633
2022-08-11T09:22:47.938Z,9.719630
2022-08-11T09:24:07.407Z,9.719637
2022-08-11T09:24:48.921Z,9.719626
2022-08-11T09:25:47.923Z,9.719545
2022-08-11T09:26:47.909Z,9.719605
2022-08-11T09:27:50.204Z,9.719680
2022-08-11T09:28:47.947Z,9.719797
2022-08-11T09:29:47.884Z,9.719708
2022-08-11T09:30:47.888Z,9.719604
2022-08-11T09:31:47.862Z,9.719601
2022-08-11T09:32:47.859Z,9.719712
2022-08-11T09:33:47.849Z,9.719748
2022-08-11T09:34:47.847Z,9.719628
2022-08-11T09:35:47.851Z,9.719509
2022-08-11T09:36:47.826Z,9.719463
2022-08-11T09:37:55.692Z,9.719440
2022-08-11T09:38:49.713Z,9.719620
2022-08-11T09:39:47.831Z,9.719507
2022-08-11T09:40:52.824Z,9.719580
2022-08-11T09:42:01.880Z,9.719515
2022-08-11T09:42:48.777Z,9.719530
2022-08-11T09:43:47.762Z,9.719586
2022-08-11T09:44:48.575Z,9.719616
2022-08-11T09:45:47.764Z,9.719614
2022-08-11T09:46:47.742Z,9.719633
2022-08-11T09:47:47.750Z,9.719630
2022-08-11T09:48:47.724Z,9.719578
2022-08-11T09:49:47.727Z,9.719567
2022-08-11T09:50:47.734Z,9.719552
2022-08-11T09:52:01.966Z,9.719543
2022-08-11T09:53:16.866Z,9.719531
2022-08-11T09:54:03.718Z,9.719541
2022-08-11T09:54:48.801Z,9.719587
2022-08-11T09:55:47.689Z,9.719611
2022-08-11T09:56:47.666Z,9.719574
2022-08-11T09:57:47.675Z,9.719594
2022-08-11T09:58:47.647Z,9.719646
2022-08-11T09:59:47.648Z,9.719626
2022-08-11T10:00:47.713Z,9.719554
2022-08-11T10:01:47.674Z,9.719635
2022-08-11T10:02:47.619Z,9.719686
2022-08-11T10:03:47.607Z,9.719694
2022-08-11T10:04:47.603Z,9.719538
2022-08-11T10:05:47.605Z,9.719615
2022-08-11T10:06:47.588Z,9.719576
2022-08-11T10:07:47.590Z,9.719723
2022-08-11T10:08:47.575Z,9.719723
2022-08-11T10:09:47.567Z,9.719735
2022-08-11T10:10:47.573Z,9.719636
2022-08-11T10:11:57.792Z,9.719683
2022-08-11T10:12:48.545Z,9.719716
2022-08-11T10:14:33.462Z,9.719589
2022-08-11T10:14:48.530Z,9.719583
2022-08-11T10:15:59.585Z,9.719561
2022-08-11T10:16:48.520Z,9.719527
2022-08-11T10:17:47.516Z,9.719576
2022-08-11T10:18:47.503Z,9.719596
2022-08-11T10:20:04.230Z,9.719623
2022-08-11T10:20:48.502Z,9.719532
2022-08-11T10:21:47.485Z,9.719569
2022-08-11T10:22:47.476Z,9.719584
2022-08-11T10:24:01.034Z,9.719667
2022-08-11T10:24:48.463Z,9.719667
2022-08-11T10:25:47.469Z,9.719613
2022-08-11T10:26:47.455Z,9.719554
2022-08-11T10:28:30.558Z,9.719587
2022-08-11T10:29:09.903Z,9.719582
2022-08-11T10:29:49.759Z,9.719583
2022-08-11T10:30:47.441Z,9.719563
2022-08-11T10:31:57.530Z,9.719547
2022-08-11T10:32:58.681Z,9.719584
2022-08-11T10:33:59.261Z,9.719559
2022-08-11T10:34:51.173Z,9.719576
2022-08-11T10:35:47.396Z,9.719592
2022-08-11T10:36:47.398Z,9.719588
2022-08-11T10:38:08.654Z,9.719620
2022-08-11T10:38:48.371Z,9.719607
2022-08-11T10:39:47.411Z,9.719594
2022-08-11T10:40:47.354Z,9.719592
2022-08-11T10:42:06.567Z,9.719558
2022-08-11T10:42:57.794Z,9.719623
2022-08-11T10:44:02.876Z,9.719588
2022-08-11T10:44:48.322Z,9.719617
2022-08-11T10:45:47.321Z,9.719618
2022-08-11T10:46:47.322Z,9.719573
2022-08-11T10:47:49.680Z,9.719666
2022-08-11T10:48:47.305Z,9.719661
2022-08-11T10:49:47.291Z,9.719664
2022-08-11T10:50:47.281Z,9.719669
2022-08-11T10:51:50.973Z,9.719626
2022-08-11T10:52:47.269Z,9.719625
2022-08-11T10:53:47.261Z,9.719578
2022-08-11T10:54:47.260Z,9.719535
2022-08-11T10:55:47.299Z,9.719550
2022-08-11T10:56:47.255Z,9.719576
2022-08-11T10:58:04.279Z,9.719569
2022-08-11T10:58:48.231Z,9.719654
2022-08-11T10:59:47.218Z,9.719645
2022-08-11T11:00:47.245Z,9.719630
2022-08-11T11:01:47.220Z,9.719639
2022-08-11T11:03:07.108Z,9.719625
2022-08-11T11:03:48.197Z,9.719619
2022-08-11T11:04:50.775Z,9.719621
2022-08-11T11:06:27.502Z,9.719631
2022-08-11T11:06:48.178Z,9.719624
2022-08-11T11:07:47.168Z,9.719650
2022-08-11T11:09:47.153Z,9.719645
2022-08-11T11:10:47.141Z,9.719592
2022-08-11T11:11:47.157Z,9.719651
2022-08-11T11:12:47.124Z,9.719573
2022-08-11T11:13:53.383Z,9.719577
2022-08-11T11:14:50.801Z,9.719656
2022-08-11T11:15:47.163Z,9.719552
2022-08-11T11:16:47.112Z,9.719531
2022-08-11T11:17:47.088Z,9.719639
2022-08-11T11:18:47.076Z,9.719559
2022-08-11T11:19:48.074Z,9.719649
2022-08-11T11:20:47.688Z,9.719607
2022-08-11T11:21:47.076Z,9.719626
2022-08-11T11:22:47.052Z,9.719611
2022-08-11T11:23:47.046Z,9.719607
2022-08-11T11:24:47.040Z,9.719504
2022-08-11T11:25:47.034Z,9.719617
2022-08-11T11:26:47.039Z,9.719599
2022-08-11T11:27:47.024Z,9.719706
2022-08-11T11:28:47.084Z,9.719911
2022-08-11T11:29:47.008Z,9.719546
2022-08-11T11:30:47.034Z,9.719427
2022-08-11T11:31:47.007Z,9.719639
2022-08-11T11:32:49.668Z,9.719560
2022-08-11T11:34:06.166Z,9.719545
2022-08-11T11:34:53.476Z,9.719670
2022-08-11T11:35:48.014Z,9.719712
2022-08-11T11:36:46.983Z,9.719794
2022-08-11T11:38:03.488Z,9.719724
2022-08-11T11:38:47.937Z,9.719702
2022-08-11T11:39:46.994Z,9.719679
2022-08-11T11:40:46.927Z,9.719796
2022-08-11T11:41:46.935Z,9.719717
2022-08-11T11:42:46.914Z,9.719701
2022-08-11T11:43:46.908Z,9.719698
2022-08-11T11:44:46.914Z,9.719726
2022-08-11T11:45:46.899Z,9.719703